createdAt,value
2022-08-03T00:02:05.480Z,20.60
2022-08-03T00:06:15.125Z,20.50
2022-08-03T00:10:21.868Z,20.50
2022-08-03T00:14:28.617Z,20.30
2022-08-03T00:18:35.349Z,20.20
2022-08-03T00:22:42.076Z,20.10
2022-08-03T00:26:48.810Z,20.10
2022-08-03T00:30:58.355Z,20.00
2022-08-03T00:35:09.227Z,20.00
2022-08-03T00:39:18.052Z,19.90
2022-08-03T00:43:27.932Z,19.80
2022-08-03T00:47:34.619Z,19.90
2022-08-03T00:51:41.386Z,19.80
2022-08-03T00:55:48.123Z,19.80
2022-08-03T00:59:54.951Z,19.80
2022-08-03T01:04:01.957Z,19.70
2022-08-03T01:08:22.855Z,19.70
2022-08-03T01:12:38.122Z,19.70
2022-08-03T01:16:54.923Z,19.70
2022-08-03T01:21:08.165Z,19.70
2022-08-03T01:25:39.195Z,19.70
2022-08-03T01:30:00.963Z,19.80
2022-08-03T01:34:14.615Z,19.70
2022-08-03T01:38:29.369Z,19.60
2022-08-03T01:42:37.247Z,19.50
2022-08-03T01:46:47.484Z,19.40
2022-08-03T01:50:56.612Z,19.30
2022-08-03T01:55:05.357Z,19.20
2022-08-03T01:59:16.538Z,19.10
2022-08-03T02:03:24.398Z,19.00
2022-08-03T02:07:32.958Z,19.00
2022-08-03T02:11:40.756Z,18.90
2022-08-03T02:15:49.430Z,18.80
2022-08-03T02:20:00.022Z,18.80
2022-08-03T02:24:07.039Z,18.80
2022-08-03T02:28:20.558Z,18.80
2022-08-03T02:32:34.383Z,18.80
2022-08-03T02:36:44.953Z,18.80
2022-08-03T02:40:53.388Z,18.80
2022-08-03T02:45:05.098Z,18.70
2022-08-03T02:49:42.172Z,18.70
2022-08-03T02:53:42.291Z,18.60
2022-08-03T02:57:50.360Z,18.50
2022-08-03T03:02:00.101Z,18.40
2022-08-03T03:06:07.840Z,18.40
2022-08-03T03:10:14.673Z,18.40
2022-08-03T03:14:33.840Z,18.30
2022-08-03T03:18:43.101Z,18.40
2022-08-03T03:22:50.804Z,18.40
2022-08-03T03:26:58.365Z,18.30
2022-08-03T03:31:09.519Z,18.30
2022-08-03T03:35:16.822Z,18.30
2022-08-03T03:39:23.670Z,18.30
2022-08-03T03:43:30.574Z,18.40
2022-08-03T03:47:37.854Z,18.40
2022-08-03T03:51:44.862Z,18.40
2022-08-03T03:56:01.228Z,18.30
2022-08-03T04:00:09.702Z,18.40
2022-08-03T04:04:35.101Z,18.30
2022-08-03T04:09:19.912Z,18.30
2022-08-03T04:13:39.869Z,18.40
2022-08-03T04:17:48.948Z,18.50
2022-08-03T04:22:00.233Z,18.40
2022-08-03T04:26:11.949Z,18.30
2022-08-03T04:30:19.406Z,18.30
2022-08-03T04:34:26.202Z,18.40
2022-08-03T04:38:40.391Z,18.40
2022-08-03T04:42:49.432Z,18.40
2022-08-03T04:46:58.100Z,18.50
2022-08-03T04:51:06.188Z,18.60
2022-08-03T04:55:12.925Z,18.60
2022-08-03T04:59:19.719Z,18.70
2022-08-03T05:03:26.481Z,18.90
2022-08-03T05:07:36.253Z,19.00
2022-08-03T05:11:43.399Z,19.20
2022-08-03T05:15:50.690Z,19.30
2022-08-03T05:19:57.612Z,19.40
2022-08-03T05:24:04.685Z,19.60
2022-08-03T05:28:11.439Z,19.70
2022-08-03T05:32:19.210Z,19.80
2022-08-03T05:36:26.324Z,19.90
2022-08-03T05:40:33.252Z,20.00
2022-08-03T05:44:40.017Z,20.10
2022-08-03T05:48:48.113Z,20.20
2022-08-03T05:52:58.072Z,20.40
2022-08-03T05:57:04.954Z,20.50
2022-08-03T06:01:12.285Z,20.70
2022-08-03T06:05:19.234Z,20.80
2022-08-03T06:09:26.045Z,21.00
2022-08-03T06:13:52.724Z,21.20
2022-08-03T06:18:02.049Z,21.40
2022-08-03T06:22:09.077Z,21.50
2022-08-03T06:26:15.803Z,21.60
2022-08-03T06:30:22.632Z,21.70
2022-08-03T06:34:32.237Z,21.80
2022-08-03T06:38:41.447Z,21.90
2022-08-03T06:42:48.146Z,22.00
2022-08-03T06:46:57.178Z,22.10
2022-08-03T06:51:03.971Z,22.20
2022-08-03T06:55:13.602Z,22.30
2022-08-03T07:00:08.225Z,22.30
2022-08-03T07:03:52.251Z,22.30
2022-08-03T07:08:01.803Z,22.40
2022-08-03T07:12:08.709Z,22.50
2022-08-03T07:16:15.451Z,22.60
2022-08-03T07:20:22.579Z,22.60
2022-08-03T07:24:29.512Z,22.60
2022-08-03T07:28:36.599Z,22.70
2022-08-03T07:32:50.356Z,22.90
2022-08-03T07:36:57.889Z,23.00
2022-08-03T07:41:04.665Z,23.20
2022-08-03T07:45:13.972Z,23.30
2022-08-03T07:49:24.006Z,23.50
2022-08-03T07:53:30.817Z,23.70
2022-08-03T07:57:37.981Z,23.70
2022-08-03T08:01:45.258Z,23.80
2022-08-03T08:05:52.012Z,23.90
2022-08-03T08:09:58.732Z,23.90
2022-08-03T08:14:05.536Z,24.20
2022-08-03T08:18:12.775Z,24.30
2022-08-03T08:22:29.689Z,24.60
2022-08-03T08:26:37.692Z,24.80
2022-08-03T08:30:44.607Z,24.90
2022-08-03T08:34:51.334Z,25.10
2022-08-03T08:38:58.072Z,25.30
2022-08-03T08:43:04.801Z,25.60
2022-08-03T08:47:12.913Z,25.80
2022-08-03T08:51:21.877Z,26.00
2022-08-03T08:55:29.717Z,26.20
2022-08-03T09:00:01.629Z,26.40
2022-08-03T09:04:09.505Z,26.80
2022-08-03T09:08:16.805Z,27.20
2022-08-03T09:12:41.899Z,27.30
2022-08-03T09:17:02.700Z,27.60
2022-08-03T09:21:30.663Z,27.80
2022-08-03T09:25:40.648Z,28.00
2022-08-03T09:29:55.036Z,28.30
2022-08-03T09:34:06.368Z,28.50
2022-08-03T09:38:19.455Z,28.70
2022-08-03T09:42:27.493Z,29.00
2022-08-03T09:46:51.177Z,29.10
2022-08-03T09:51:13.002Z,29.50
2022-08-03T09:56:32.818Z,29.50
2022-08-03T09:59:47.768Z,29.70
2022-08-03T10:04:04.066Z,30.00
2022-08-03T10:08:19.411Z,30.20
2022-08-03T10:12:27.218Z,30.30
2022-08-03T10:16:39.263Z,30.60
2022-08-03T10:20:51.585Z,30.70
2022-08-03T10:25:08.731Z,30.70
2022-08-03T10:29:25.224Z,30.90
2022-08-03T10:33:49.710Z,31.00
2022-08-03T10:38:06.525Z,31.10
2022-08-03T10:42:14.870Z,31.30
2022-08-03T10:46:21.736Z,31.90
2022-08-03T10:50:28.934Z,31.50
2022-08-03T10:54:58.245Z,31.70
2022-08-03T10:59:05.038Z,31.70
2022-08-03T11:03:15.936Z,31.80
2022-08-03T11:07:24.401Z,32.00
2022-08-03T11:11:31.307Z,32.10
2022-08-03T11:15:38.527Z,32.00
2022-08-03T11:19:56.680Z,32.10
2022-08-03T11:24:06.747Z,32.30
2022-08-03T11:28:29.225Z,32.30
2022-08-03T11:32:40.515Z,32.50
2022-08-03T11:37:20.513Z,32.60
2022-08-03T11:41:42.723Z,32.80
2022-08-03T11:46:02.180Z,32.90
2022-08-03T11:50:09.215Z,32.80
2022-08-03T11:54:20.120Z,32.70
2022-08-03T11:58:58.249Z,33.40
2022-08-03T12:03:00.917Z,33.10
2022-08-03T12:07:07.678Z,33.30
2022-08-03T12:11:16.012Z,33.60
2022-08-03T12:15:30.472Z,33.50
2022-08-03T12:19:44.031Z,33.50
2022-08-03T12:23:51.277Z,33.50
2022-08-03T12:28:36.462Z,33.40
2022-08-03T12:32:46.693Z,33.50
2022-08-03T12:36:56.543Z,33.50
2022-08-03T12:41:14.637Z,33.60
2022-08-03T12:45:26.941Z,33.90
2022-08-03T12:49:47.453Z,33.90
2022-08-03T12:53:55.653Z,33.80
2022-08-03T12:58:07.830Z,33.60
2022-08-03T13:02:17.756Z,33.40
2022-08-03T13:06:26.468Z,33.70
2022-08-03T13:10:35.140Z,33.90
2022-08-03T13:14:47.389Z,34.10
2022-08-03T13:18:54.420Z,34.40
2022-08-03T13:23:01.504Z,34.50
2022-08-03T13:28:02.628Z,34.40
2022-08-03T13:31:35.321Z,34.30
2022-08-03T13:35:42.099Z,34.00
2022-08-03T13:39:58.697Z,34.00
2022-08-03T13:44:26.534Z,34.00
2022-08-03T13:48:37.277Z,34.10
2022-08-03T13:52:46.293Z,34.10
2022-08-03T13:56:53.059Z,33.90
2022-08-03T14:00:59.806Z,34.00
2022-08-03T14:05:08.124Z,34.10
2022-08-03T14:09:15.632Z,33.90
2022-08-03T14:13:22.637Z,33.60
2022-08-03T14:17:37.482Z,33.00
2022-08-03T14:22:03.666Z,33.10
2022-08-03T14:26:14.574Z,33.20
2022-08-03T14:30:21.299Z,33.30
2022-08-03T14:34:28.066Z,33.20
2022-08-03T14:38:34.913Z,32.90
2022-08-03T14:42:41.698Z,33.20
2022-08-03T14:46:48.404Z,33.00
2022-08-03T14:50:56.522Z,32.60
2022-08-03T14:55:03.362Z,32.80
2022-08-03T14:59:10.086Z,32.90
2022-08-03T15:03:20.258Z,33.30
2022-08-03T15:07:27.191Z,33.60
2022-08-03T15:11:33.911Z,33.30
2022-08-03T15:15:41.565Z,33.20
2022-08-03T15:20:00.342Z,32.90
2022-08-03T15:24:15.169Z,32.60
2022-08-03T15:28:21.974Z,32.40
2022-08-03T15:32:28.707Z,32.10
2022-08-03T15:36:35.488Z,32.00
2022-08-03T15:40:42.364Z,31.60
2022-08-03T15:44:49.097Z,31.80
2022-08-03T15:48:55.789Z,31.90
2022-08-03T15:53:02.707Z,31.60
2022-08-03T15:57:09.967Z,31.50
2022-08-03T16:01:19.761Z,31.10
2022-08-03T16:05:26.774Z,31.10
2022-08-03T16:09:42.345Z,30.80
2022-08-03T16:14:13.796Z,30.60
2022-08-03T16:18:17.286Z,30.60
2022-08-03T16:22:25.060Z,30.50
2022-08-03T16:26:32.371Z,30.40
2022-08-03T16:30:43.972Z,30.30
2022-08-03T16:34:50.702Z,30.30
2022-08-03T16:38:57.478Z,30.20
2022-08-03T16:43:18.230Z,30.10
2022-08-03T16:47:25.396Z,30.10
2022-08-03T16:51:50.023Z,29.90
2022-08-03T16:55:57.412Z,29.90
2022-08-03T17:00:04.942Z,29.80
2022-08-03T17:04:13.439Z,29.80
2022-08-03T17:08:26.742Z,29.80
2022-08-03T17:12:34.215Z,29.70
2022-08-03T17:16:52.637Z,29.60
2022-08-03T17:21:03.998Z,29.60
2022-08-03T17:25:10.759Z,29.40
2022-08-03T17:29:32.485Z,29.40
2022-08-03T17:33:39.444Z,29.40
2022-08-03T17:37:57.439Z,29.30
2022-08-03T17:42:26.961Z,29.30
2022-08-03T17:46:34.927Z,29.20
2022-08-03T17:50:50.953Z,29.20
2022-08-03T17:55:54.957Z,29.20
2022-08-03T18:00:26.672Z,29.10
2022-08-03T18:04:41.313Z,29.00
2022-08-03T18:08:55.019Z,28.90
2022-08-03T18:13:10.261Z,28.80
2022-08-03T18:17:26.807Z,28.80
2022-08-03T18:22:03.703Z,28.70
2022-08-03T18:26:12.325Z,28.70
2022-08-03T18:30:19.432Z,28.60
2022-08-03T18:34:34.856Z,28.60
2022-08-03T18:38:42.603Z,28.50
2022-08-03T18:42:54.862Z,28.40
2022-08-03T18:47:16.397Z,28.20
2022-08-03T18:51:33.761Z,28.10
2022-08-03T18:56:02.099Z,28.00
2022-08-03T19:00:15.553Z,27.80
2022-08-03T19:04:25.279Z,27.60
2022-08-03T19:08:58.232Z,27.50
2022-08-03T19:13:14.110Z,27.40
2022-08-03T19:17:22.281Z,27.20
2022-08-03T19:21:36.144Z,27.10
2022-08-03T19:25:43.085Z,26.90
2022-08-03T19:29:58.677Z,26.70
2022-08-03T19:34:08.102Z,26.90
2022-08-03T19:38:29.254Z,26.40
2022-08-03T19:42:40.810Z,26.30
2022-08-03T19:47:07.713Z,26.00
2022-08-03T19:51:14.661Z,26.20
2022-08-03T19:55:21.825Z,25.70
2022-08-03T19:59:30.077Z,25.60
2022-08-03T20:03:43.157Z,25.40
2022-08-03T20:07:50.556Z,25.30
2022-08-03T20:11:58.978Z,25.20
2022-08-03T20:16:06.466Z,25.10
2022-08-03T20:20:25.332Z,25.00
2022-08-03T20:24:34.494Z,24.80
2022-08-03T20:28:51.187Z,24.70
2022-08-03T20:32:58.560Z,24.60
2022-08-03T20:37:05.587Z,24.50
2022-08-03T20:41:17.363Z,24.40
2022-08-03T20:45:59.825Z,24.20
2022-08-03T20:49:51.149Z,24.20
2022-08-03T20:54:02.309Z,24.10
2022-08-03T20:58:13.553Z,24.00
2022-08-03T21:02:29.636Z,24.00
2022-08-03T21:07:03.014Z,23.90
2022-08-03T21:11:25.028Z,23.80
2022-08-03T21:16:11.263Z,23.70
2022-08-03T21:20:05.638Z,23.70
2022-08-03T21:24:13.487Z,23.70
2022-08-03T21:28:27.339Z,23.50
2022-08-03T21:32:34.720Z,23.50
2022-08-03T21:36:41.602Z,23.50
2022-08-03T21:40:49.865Z,23.50
2022-08-03T21:44:56.713Z,23.50
2022-08-03T21:49:52.064Z,23.50
2022-08-03T21:54:02.364Z,23.50
2022-08-03T21:58:06.134Z,23.40
2022-08-03T22:02:22.802Z,23.40
2022-08-03T22:06:31.782Z,23.50
2022-08-03T22:10:38.777Z,23.40
2022-08-03T22:14:45.904Z,23.50
2022-08-03T22:18:52.617Z,23.40
2022-08-03T22:23:05.363Z,23.20
2022-08-03T22:27:31.966Z,23.10
2022-08-03T22:31:58.381Z,23.00
2022-08-03T22:36:06.956Z,22.80
2022-08-03T22:40:15.831Z,22.60
2022-08-03T22:44:22.768Z,22.40
2022-08-03T22:48:32.821Z,22.40
2022-08-03T22:52:42.471Z,22.40
2022-08-03T22:56:52.602Z,22.40
2022-08-03T23:01:05.720Z,22.40
2022-08-03T23:06:02.555Z,22.20
2022-08-03T23:09:52.941Z,22.20
2022-08-03T23:14:00.520Z,22.10
2022-08-03T23:18:10.975Z,22.00
2022-08-03T23:22:29.640Z,21.80
2022-08-03T23:26:37.997Z,21.70
2022-08-03T23:30:45.504Z,21.60
2022-08-03T23:35:19.097Z,21.60
2022-08-03T23:39:29.602Z,21.50
2022-08-03T23:43:52.054Z,21.40
2022-08-03T23:48:00.678Z,21.40
2022-08-03T23:52:15.839Z,21.20
2022-08-03T23:56:50.540Z,21.20
